EGPE/INV METAR and TAF weather

Enter ICAO airport designator
Station Type Date Time Source
EGPE METAR 2018/04/23 11:20 UTC NOAA

EGPE 231120Z 24019KT 9999 FEW015 SCT028 BKN049 11/06 Q1004


Station Type Date Time Source
EGPE Decoded METAR 2018/04/23 11:20 UTC NOAA

Inverness / Dalcross, United Kingdom (EGPE) 57-32N 004-03W 0M
Apr 23, 2018 - 07:20 AM EDT / 2018.04.23 1120 UTC
Wind: from the WSW (240 degrees) at 22 MPH (19 KT):0
Visibility: greater than 7 mile(s):0
Sky conditions: mostly cloudy
Temperature: 51 F (11 C)
Dew Point: 42 F (6 C)
Relative Humidity: 71%
Pressure (altimeter): 29.65 in. Hg (1004 hPa)
ob: EGPE 231120Z 24019KT 9999 FEW015 SCT028 BKN049 11/06 Q1004
cycle: 11

Station Type Date Time Source
EGPE TAF UTC NOAA

Error!


Example: see airport list